sensor_id;sensor_type;location;lat;lon;timestamp;temperature;humidity
15690;DHT22;7945;48.816;11.506;2023-02-22T00:01:15;7.40;99.90
15690;DHT22;7945;48.816;11.506;2023-02-22T00:03:53;7.40;99.90
15690;DHT22;7945;48.816;11.506;2023-02-22T00:06:21;7.40;99.90
15690;DHT22;7945;48.816;11.506;2023-02-22T00:08:50;7.40;99.90
15690;DHT22;7945;48.816;11.506;2023-02-22T00:11:18;7.40;99.90
15690;DHT22;7945;48.816;11.506;2023-02-22T00:13:45;7.30;99.90
15690;DHT22;7945;48.816;11.506;2023-02-22T00:16:15;7.30;99.90
15690;DHT22;7945;48.816;11.506;2023-02-22T00:18:42;7.20;99.90
15690;DHT22;7945;48.816;11.506;2023-02-22T00:21:11;7.20;99.90
15690;DHT22;7945;48.816;11.506;2023-02-22T00:23:42;7.20;99.90
15690;DHT22;7945;48.816;11.506;2023-02-22T00:26:12;7.20;99.90
15690;DHT22;7945;48.816;11.506;2023-02-22T00:28:43;7.20;99.90
15690;DHT22;7945;48.816;11.506;2023-02-22T00:31:09;7.20;99.90
15690;DHT22;7945;48.816;11.506;2023-02-22T00:33:38;7.20;99.90
15690;DHT22;7945;48.816;11.506;2023-02-22T00:36:05;7.10;99.90
15690;DHT22;7945;48.816;11.506;2023-02-22T00:38:32;7.20;99.90
15690;DHT22;7945;48.816;11.506;2023-02-22T00:41:00;7.10;99.90
15690;DHT22;7945;48.816;11.506;2023-02-22T00:43:27;7.10;99.90
15690;DHT22;7945;48.816;11.506;2023-02-22T00:45:54;7.00;99.90
15690;DHT22;7945;48.816;11.506;2023-02-22T00:48:21;7.00;99.90
15690;DHT22;7945;48.816;11.506;2023-02-22T00:50:48;6.90;99.90
15690;DHT22;7945;48.816;11.506;2023-02-22T00:53:20;7.00;99.90
15690;DHT22;7945;48.816;11.506;2023-02-22T00:55:47;6.90;99.90
15690;DHT22;7945;48.816;11.506;2023-02-22T00:58:16;7.00;99.90
15690;DHT22;7945;48.816;11.506;2023-02-22T01:00:43;6.90;99.90
15690;DHT22;7945;48.816;11.506;2023-02-22T01:03:12;6.90;99.90
15690;DHT22;7945;48.816;11.506;2023-02-22T01:05:39;6.90;99.90
15690;DHT22;7945;48.816;11.506;2023-02-22T01:08:07;6.80;99.90
15690;DHT22;7945;48.816;11.506;2023-02-22T01:10:35;6.80;99.90
15690;DHT22;7945;48.816;11.506;2023-02-22T01:13:02;6.70;99.90
15690;DHT22;7945;48.816;11.506;2023-02-22T01:15:35;6.70;99.90
15690;DHT22;7945;48.816;11.506;2023-02-22T01:18:02;6.70;99.90
15690;DHT22;7945;48.816;11.506;2023-02-22T01:20:31;6.70;99.90
15690;DHT22;7945;48.816;11.506;2023-02-22T01:23:00;6.70;99.90
15690;DHT22;7945;48.816;11.506;2023-02-22T01:25:31;6.70;99.90
15690;DHT22;7945;48.816;11.506;2023-02-22T01:27:59;6.70;99.90
15690;DHT22;7945;48.816;11.506;2023-02-22T01:30:29;6.70;99.90
15690;DHT22;7945;48.816;11.506;2023-02-22T01:32:59;6.70;99.90
15690;DHT22;7945;48.816;11.506;2023-02-22T01:35:28;6.70;99.90
15690;DHT22;7945;48.816;11.506;2023-02-22T01:37:56;6.60;99.90
15690;DHT22;7945;48.816;11.506;2023-02-22T01:40:26;6.60;99.90
15690;DHT22;7945;48.816;11.506;2023-02-22T01:42:54;6.50;99.90
15690;DHT22;7945;48.816;11.506;2023-02-22T01:45:42;6.50;99.90
15690;DHT22;7945;48.816;11.506;2023-02-22T01:48:15;6.50;99.90
15690;DHT22;7945;48.816;11.506;2023-02-22T01:50:46;6.50;99.90
15690;DHT22;7945;48.816;11.506;2023-02-22T01:53:15;6.40;99.90
15690;DHT22;7945;48.816;11.506;2023-02-22T01:55:44;6.40;99.90
15690;DHT22;7945;48.816;11.506;2023-02-22T01:58:12;6.40;99.90
15690;DHT22;7945;48.816;11.506;2023-02-22T02:00:40;6.40;99.90
15690;DHT22;7945;48.816;11.506;2023-02-22T02:03:14;6.40;99.90
15690;DHT22;7945;48.816;11.506;2023-02-22T02:05:43;6.40;99.90
15690;DHT22;7945;48.816;11.506;2023-02-22T02:08:20;6.40;99.90
15690;DHT22;7945;48.816;11.506;2023-02-22T02:10:50;6.40;99.90
15690;DHT22;7945;48.816;11.506;2023-02-22T02:13:19;6.50;99.90
15690;DHT22;7945;48.816;11.506;2023-02-22T02:15:46;6.50;99.90
15690;DHT22;7945;48.816;11.506;2023-02-22T02:18:15;6.50;99.90
15690;DHT22;7945;48.816;11.506;2023-02-22T02:20:53;6.50;99.90
15690;DHT22;7945;48.816;11.506;2023-02-22T02:23:44;6.50;99.90
15690;DHT22;7945;48.816;11.506;2023-02-22T02:29:34;6.50;99.90
15690;DHT22;7945;48.816;11.506;2023-02-22T02:32:23;6.40;99.90
15690;DHT22;7945;48.816;11.506;2023-02-22T02:34:56;6.40;99.90
15690;DHT22;7945;48.816;11.506;2023-02-22T02:37:32;6.50;99.90
15690;DHT22;7945;48.816;11.506;2023-02-22T02:40:09;6.50;99.90
15690;DHT22;7945;48.816;11.506;2023-02-22T02:42:40;6.50;99.90
15690;DHT22;7945;48.816;11.506;2023-02-22T02:45:12;6.50;99.90
15690;DHT22;7945;48.816;11.506;2023-02-22T02:47:45;6.50;99.90
15690;DHT22;7945;48.816;11.506;2023-02-22T02:50:15;6.50;99.90
15690;DHT22;7945;48.816;11.506;2023-02-22T02:52:44;6.50;99.90
15690;DHT22;7945;48.816;11.506;2023-02-22T02:55:12;6.40;99.90
15690;DHT22;7945;48.816;11.506;2023-02-22T02:57:39;6.40;99.90
15690;DHT22;7945;48.816;11.506;2023-02-22T03:00:07;6.40;99.90
15690;DHT22;7945;48.816;11.506;2023-02-22T03:02:57;6.30;99.90
15690;DHT22;7945;48.816;11.506;2023-02-22T03:05:42;6.30;99.90
15690;DHT22;7945;48.816;11.506;2023-02-22T03:08:19;6.30;99.90
15690;DHT22;7945;48.816;11.506;2023-02-22T03:10:56;6.20;99.90
15690;DHT22;7945;48.816;11.506;2023-02-22T03:13:32;6.30;99.90
15690;DHT22;7945;48.816;11.506;2023-02-22T03:16:11;6.30;99.90
15690;DHT22;7945;48.816;11.506;2023-02-22T03:18:48;6.30;99.90
15690;DHT22;7945;48.816;11.506;2023-02-22T03:21:23;6.30;99.90
15690;DHT22;7945;48.816;11.506;2023-02-22T03:23:55;6.30;99.90
15690;DHT22;7945;48.816;11.506;2023-02-22T03:26:28;6.20;99.90
15690;DHT22;7945;48.816;11.506;2023-02-22T03:28:57;6.20;99.90
15690;DHT22;7945;48.816;11.506;2023-02-22T03:31:28;6.20;99.90
15690;DHT22;7945;48.816;11.506;2023-02-22T03:34:00;6.10;99.90
15690;DHT22;7945;48.816;11.506;2023-02-22T03:36:31;6.10;99.90
15690;DHT22;7945;48.816;11.506;2023-02-22T03:39:00;6.10;99.90
15690;DHT22;7945;48.816;11.506;2023-02-22T03:41:30;6.10;99.90
15690;DHT22;7945;48.816;11.506;2023-02-22T03:44:00;6.10;99.90
15690;DHT22;7945;48.816;11.506;2023-02-22T03:46:29;6.10;99.90
15690;DHT22;7945;48.816;11.506;2023-02-22T03:49:03;6.10;99.90
15690;DHT22;7945;48.816;11.506;2023-02-22T03:51:32;6.10;99.90
15690;DHT22;7945;48.816;11.506;2023-02-22T03:53:58;6.10;99.90
15690;DHT22;7945;48.816;11.506;2023-02-22T03:56:29;6.00;99.90
15690;DHT22;7945;48.816;11.506;2023-02-22T03:59:00;6.00;99.90
15690;DHT22;7945;48.816;11.506;2023-02-22T04:01:27;6.00;99.90
15690;DHT22;7945;48.816;11.506;2023-02-22T04:03:55;6.00;99.90
15690;DHT22;7945;48.816;11.506;2023-02-22T04:06:23;6.00;99.90
15690;DHT22;7945;48.816;11.506;2023-02-22T04:08:49;6.00;99.90
15690;DHT22;7945;48.816;11.506;2023-02-22T04:11:16;5.90;99.90
15690;DHT22;7945;48.816;11.506;2023-02-22T04:13:43;6.00;99.90
15690;DHT22;7945;48.816;11.506;2023-02-22T04:16:10;5.50;99.90
15690;DHT22;7945;48.816;11.506;2023-02-22T04:18:36;5.90;99.90
15690;DHT22;7945;48.816;11.506;2023-02-22T04:21:03;5.90;99.90
15690;DHT22;7945;48.816;11.506;2023-02-22T04:23:31;5.90;99.90
15690;DHT22;7945;48.816;11.506;2023-02-22T04:25:58;5.90;99.90
15690;DHT22;7945;48.816;11.506;2023-02-22T04:28:25;5.90;99.90
15690;DHT22;7945;48.816;11.506;2023-02-22T04:30:52;5.90;99.90
15690;DHT22;7945;48.816;11.506;2023-02-22T04:33:18;5.90;99.90
15690;DHT22;7945;48.816;11.506;2023-02-22T04:35:45;5.80;99.90
15690;DHT22;7945;48.816;11.506;2023-02-22T04:38:12;5.80;99.90
15690;DHT22;7945;48.816;11.506;2023-02-22T04:40:41;5.80;99.90
15690;DHT22;7945;48.816;11.506;2023-02-22T04:43:08;5.70;99.90
15690;DHT22;7945;48.816;11.506;2023-02-22T04:45:34;5.60;99.90
15690;DHT22;7945;48.816;11.506;2023-02-22T04:48:01;5.60;99.90
15690;DHT22;7945;48.816;11.506;2023-02-22T04:50:28;5.50;99.90
15690;DHT22;7945;48.816;11.506;2023-02-22T04:52:55;5.50;99.90
15690;DHT22;7945;48.816;11.506;2023-02-22T04:55:21;5.40;99.90
15690;DHT22;7945;48.816;11.506;2023-02-22T04:57:49;5.40;99.90
15690;DHT22;7945;48.816;11.506;2023-02-22T05:00:17;5.40;99.90
15690;DHT22;7945;48.816;11.506;2023-02-22T05:02:46;5.50;99.90
15690;DHT22;7945;48.816;11.506;2023-02-22T05:05:13;5.50;99.90
15690;DHT22;7945;48.816;11.506;2023-02-22T05:07:40;5.50;99.90
15690;DHT22;7945;48.816;11.506;2023-02-22T05:10:07;5.50;99.90
15690;DHT22;7945;48.816;11.506;2023-02-22T05:12:35;5.50;99.90
15690;DHT22;7945;48.816;11.506;2023-02-22T05:15:03;5.50;99.90
15690;DHT22;7945;48.816;11.506;2023-02-22T05:17:30;5.50;99.90
15690;DHT22;7945;48.816;11.506;2023-02-22T05:19:57;5.50;99.90
15690;DHT22;7945;48.816;11.506;2023-02-22T05:22:24;5.50;99.90
15690;DHT22;7945;48.816;11.506;2023-02-22T05:24:51;5.50;99.90
15690;DHT22;7945;48.816;11.506;2023-02-22T05:27:18;5.50;99.90
15690;DHT22;7945;48.816;11.506;2023-02-22T05:29:45;5.50;99.90
15690;DHT22;7945;48.816;11.506;2023-02-22T05:32:13;5.50;99.90
15690;DHT22;7945;48.816;11.506;2023-02-22T05:34:40;5.50;99.90
15690;DHT22;7945;48.816;11.506;2023-02-22T05:37:06;5.50;99.90
15690;DHT22;7945;48.816;11.506;2023-02-22T05:39:33;5.50;99.90
15690;DHT22;7945;48.816;11.506;2023-02-22T05:42:00;5.50;99.90
15690;DHT22;7945;48.816;11.506;2023-02-22T05:44:26;5.40;99.90
15690;DHT22;7945;48.816;11.506;2023-02-22T05:46:53;5.40;99.90
15690;DHT22;7945;48.816;11.506;2023-02-22T05:49:21;5.40;99.90
15690;DHT22;7945;48.816;11.506;2023-02-22T05:51:48;5.40;99.90
15690;DHT22;7945;48.816;11.506;2023-02-22T05:54:15;5.40;99.90
15690;DHT22;7945;48.816;11.506;2023-02-22T05:56:41;5.40;99.90
15690;DHT22;7945;48.816;11.506;2023-02-22T05:59:08;5.50;99.90
15690;DHT22;7945;48.816;11.506;2023-02-22T06:01:35;5.50;99.90
15690;DHT22;7945;48.816;11.506;2023-02-22T06:04:01;5.50;99.90
15690;DHT22;7945;48.816;11.506;2023-02-22T06:06:30;5.50;99.90
15690;DHT22;7945;48.816;11.506;2023-02-22T06:08:56;5.60;99.90
15690;DHT22;7945;48.816;11.506;2023-02-22T06:11:23;5.60;99.90
15690;DHT22;7945;48.816;11.506;2023-02-22T06:15:15;5.60;99.90
15690;DHT22;7945;48.816;11.506;2023-02-22T06:17:42;5.70;99.90
15690;DHT22;7945;48.816;11.506;2023-02-22T06:20:11;5.70;99.90
15690;DHT22;7945;48.816;11.506;2023-02-22T06:22:38;5.70;99.90
15690;DHT22;7945;48.816;11.506;2023-02-22T06:25:06;5.70;99.90
15690;DHT22;7945;48.816;11.506;2023-02-22T06:27:34;5.70;99.90
15690;DHT22;7945;48.816;11.506;2023-02-22T06:30:01;5.70;99.90
15690;DHT22;7945;48.816;11.506;2023-02-22T06:32:29;5.70;99.90
15690;DHT22;7945;48.816;11.506;2023-02-22T06:34:56;5.70;99.90
15690;DHT22;7945;48.816;11.506;2023-02-22T06:37:23;5.70;99.90
15690;DHT22;7945;48.816;11.506;2023-02-22T06:39:50;5.70;99.90
15690;DHT22;7945;48.816;11.506;2023-02-22T06:42:16;5.70;99.90
15690;DHT22;7945;48.816;11.506;2023-02-22T06:44:43;5.80;99.90
15690;DHT22;7945;48.816;11.506;2023-02-22T06:47:10;5.80;99.90
15690;DHT22;7945;48.816;11.506;2023-02-22T06:49:38;5.80;99.90
15690;DHT22;7945;48.816;11.506;2023-02-22T06:52:05;5.80;99.90
15690;DHT22;7945;48.816;11.506;2023-02-22T06:54:32;5.80;99.90
15690;DHT22;7945;48.816;11.506;2023-02-22T06:56:59;5.90;99.90
15690;DHT22;7945;48.816;11.506;2023-02-22T06:59:25;5.90;99.90
15690;DHT22;7945;48.816;11.506;2023-02-22T07:01:53;6.00;99.90
15690;DHT22;7945;48.816;11.506;2023-02-22T07:04:20;6.00;99.90
15690;DHT22;7945;48.816;11.506;2023-02-22T07:06:49;6.10;99.90
15690;DHT22;7945;48.816;11.506;2023-02-22T07:09:17;6.10;99.90
15690;DHT22;7945;48.816;11.506;2023-02-22T07:11:43;6.30;99.90
15690;DHT22;7945;48.816;11.506;2023-02-22T07:14:10;6.50;99.90
15690;DHT22;7945;48.816;11.506;2023-02-22T07:16:37;6.60;99.90
15690;DHT22;7945;48.816;11.506;2023-02-22T07:19:04;6.80;99.90
15690;DHT22;7945;48.816;11.506;2023-02-22T07:21:30;7.00;99.90
15690;DHT22;7945;48.816;11.506;2023-02-22T07:23:58;7.20;99.90
15690;DHT22;7945;48.816;11.506;2023-02-22T07:26:26;7.30;99.90
15690;DHT22;7945;48.816;11.506;2023-02-22T07:28:53;7.40;99.90
15690;DHT22;7945;48.816;11.506;2023-02-22T07:31:20;7.50;99.90
15690;DHT22;7945;48.816;11.506;2023-02-22T07:33:47;7.50;99.90
15690;DHT22;7945;48.816;11.506;2023-02-22T07:36:16;7.60;99.90
15690;DHT22;7945;48.816;11.506;2023-02-22T07:38:43;7.70;99.90
15690;DHT22;7945;48.816;11.506;2023-02-22T07:41:11;7.70;99.90
15690;DHT22;7945;48.816;11.506;2023-02-22T07:43:38;7.80;99.90
15690;DHT22;7945;48.816;11.506;2023-02-22T07:46:04;7.90;99.90
15690;DHT22;7945;48.816;11.506;2023-02-22T07:48:31;8.00;99.90
15690;DHT22;7945;48.816;11.506;2023-02-22T07:50:58;8.00;99.90
15690;DHT22;7945;48.816;11.506;2023-02-22T07:53:26;8.10;99.90
15690;DHT22;7945;48.816;11.506;2023-02-22T07:55:55;8.10;99.90
15690;DHT22;7945;48.816;11.506;2023-02-22T07:58:25;8.20;99.90
15690;DHT22;7945;48.816;11.506;2023-02-22T08:00:52;8.20;99.90
15690;DHT22;7945;48.816;11.506;2023-02-22T08:03:21;8.30;99.90
15690;DHT22;7945;48.816;11.506;2023-02-22T08:05:49;8.30;99.90
15690;DHT22;7945;48.816;11.506;2023-02-22T08:08:16;8.30;99.90
15690;DHT22;7945;48.816;11.506;2023-02-22T08:10:43;8.20;99.90
15690;DHT22;7945;48.816;11.506;2023-02-22T08:13:10;8.10;99.90
15690;DHT22;7945;48.816;11.506;2023-02-22T08:15:39;8.00;99.90
15690;DHT22;7945;48.816;11.506;2023-02-22T08:18:08;7.90;99.90
15690;DHT22;7945;48.816;11.506;2023-02-22T08:20:36;7.80;99.90
15690;DHT22;7945;48.816;11.506;2023-02-22T08:23:04;7.80;99.90
15690;DHT22;7945;48.816;11.506;2023-02-22T08:25:31;7.80;99.90
15690;DHT22;7945;48.816;11.506;2023-02-22T08:28:00;7.90;99.90
15690;DHT22;7945;48.816;11.506;2023-02-22T08:30:28;7.90;99.90
15690;DHT22;7945;48.816;11.506;2023-02-22T08:32:57;8.00;99.90
15690;DHT22;7945;48.816;11.506;2023-02-22T08:35:25;8.10;99.90
15690;DHT22;7945;48.816;11.506;2023-02-22T08:37:54;8.20;99.90
15690;DHT22;7945;48.816;11.506;2023-02-22T08:40:22;8.30;99.90
15690;DHT22;7945;48.816;11.506;2023-02-22T08:42:49;8.40;99.90
15690;DHT22;7945;48.816;11.506;2023-02-22T08:45:16;8.50;99.90
15690;DHT22;7945;48.816;11.506;2023-02-22T08:47:43;8.50;99.90
15690;DHT22;7945;48.816;11.506;2023-02-22T08:50:16;8.60;99.90
15690;DHT22;7945;48.816;11.506;2023-02-22T08:52:43;8.70;99.90
15690;DHT22;7945;48.816;11.506;2023-02-22T08:55:10;8.80;99.90
15690;DHT22;7945;48.816;11.506;2023-02-22T08:57:36;8.90;99.90
15690;DHT22;7945;48.816;11.506;2023-02-22T09:00:04;9.00;99.90
15690;DHT22;7945;48.816;11.506;2023-02-22T09:02:32;9.10;99.90
15690;DHT22;7945;48.816;11.506;2023-02-22T09:04:58;9.20;99.90
15690;DHT22;7945;48.816;11.506;2023-02-22T09:07:27;9.30;99.90
15690;DHT22;7945;48.816;11.506;2023-02-22T09:09:53;9.40;99.90
15690;DHT22;7945;48.816;11.506;2023-02-22T09:12:20;9.50;99.90
15690;DHT22;7945;48.816;11.506;2023-02-22T09:14:47;9.60;99.90
15690;DHT22;7945;48.816;11.506;2023-02-22T09:17:13;9.70;99.90
15690;DHT22;7945;48.816;11.506;2023-02-22T09:19:40;9.80;99.90
15690;DHT22;7945;48.816;11.506;2023-02-22T09:22:07;9.90;99.90
15690;DHT22;7945;48.816;11.506;2023-02-22T09:24:35;9.90;99.90
15690;DHT22;7945;48.816;11.506;2023-02-22T09:27:02;10.00;99.90
15690;DHT22;7945;48.816;11.506;2023-02-22T09:29:31;10.10;99.90
15690;DHT22;7945;48.816;11.506;2023-02-22T09:31:58;10.20;99.90
15690;DHT22;7945;48.816;11.506;2023-02-22T09:34:25;10.30;99.90
15690;DHT22;7945;48.816;11.506;2023-02-22T09:36:54;10.40;99.90
15690;DHT22;7945;48.816;11.506;2023-02-22T09:39:22;10.50;99.90
15690;DHT22;7945;48.816;11.506;2023-02-22T09:41:55;10.50;99.90
15690;DHT22;7945;48.816;11.506;2023-02-22T09:44:34;10.50;99.90
15690;DHT22;7945;48.816;11.506;2023-02-22T09:47:03;10.50;99.90
15690;DHT22;7945;48.816;11.506;2023-02-22T09:49:37;10.50;99.90
15690;DHT22;7945;48.816;11.506;2023-02-22T09:52:10;10.60;99.90
15690;DHT22;7945;48.816;11.506;2023-02-22T09:54:41;10.70;99.90
15690;DHT22;7945;48.816;11.506;2023-02-22T09:57:13;10.80;99.90
15690;DHT22;7945;48.816;11.506;2023-02-22T09:59:46;10.90;99.90
15690;DHT22;7945;48.816;11.506;2023-02-22T10:02:22;11.00;99.90
15690;DHT22;7945;48.816;11.506;2023-02-22T10:04:58;11.00;99.90
15690;DHT22;7945;48.816;11.506;2023-02-22T10:07:29;11.00;99.90
15690;DHT22;7945;48.816;11.506;2023-02-22T10:09:58;11.00;99.90
15690;DHT22;7945;48.816;11.506;2023-02-22T10:12:37;11.20;99.90
15690;DHT22;7945;48.816;11.506;2023-02-22T10:15:27;11.40;99.90
15690;DHT22;7945;48.816;11.506;2023-02-22T10:18:03;11.60;99.90
15690;DHT22;7945;48.816;11.506;2023-02-22T10:20:44;11.70;99.90
15690;DHT22;7945;48.816;11.506;2023-02-22T10:23:20;11.80;99.90
15690;DHT22;7945;48.816;11.506;2023-02-22T10:25:53;11.80;99.90
15690;DHT22;7945;48.816;11.506;2023-02-22T10:28:25;11.90;99.90
15690;DHT22;7945;48.816;11.506;2023-02-22T10:30:57;11.90;99.90
15690;DHT22;7945;48.816;11.506;2023-02-22T10:33:30;11.90;99.90
15690;DHT22;7945;48.816;11.506;2023-02-22T10:35:59;12.00;99.90
15690;DHT22;7945;48.816;11.506;2023-02-22T10:38:28;12.00;99.90
15690;DHT22;7945;48.816;11.506;2023-02-22T10:40:58;12.00;99.90
15690;DHT22;7945;48.816;11.506;2023-02-22T10:43:28;12.00;99.90
15690;DHT22;7945;48.816;11.506;2023-02-22T10:45:57;12.10;99.90
15690;DHT22;7945;48.816;11.506;2023-02-22T10:48:27;12.20;99.90
15690;DHT22;7945;48.816;11.506;2023-02-22T10:50:59;12.30;99.90
15690;DHT22;7945;48.816;11.506;2023-02-22T10:53:27;12.40;99.90
15690;DHT22;7945;48.816;11.506;2023-02-22T10:56:09;12.50;99.90
15690;DHT22;7945;48.816;11.506;2023-02-22T10:58:46;12.30;99.90
15690;DHT22;7945;48.816;11.506;2023-02-22T11:01:24;12.10;99.90
15690;DHT22;7945;48.816;11.506;2023-02-22T11:04:00;12.20;99.90
15690;DHT22;7945;48.816;11.506;2023-02-22T11:06:29;12.30;99.90
15690;DHT22;7945;48.816;11.506;2023-02-22T11:09:11;12.40;99.90
15690;DHT22;7945;48.816;11.506;2023-02-22T11:11:40;12.60;99.90
15690;DHT22;7945;48.816;11.506;2023-02-22T11:14:09;12.80;99.90
15690;DHT22;7945;48.816;11.506;2023-02-22T11:16:38;12.90;99.90
15690;DHT22;7945;48.816;11.506;2023-02-22T11:19:13;13.00;99.90
15690;DHT22;7945;48.816;11.506;2023-02-22T11:21:42;12.80;99.90
15690;DHT22;7945;48.816;11.506;2023-02-22T11:24:12;12.70;99.90
15690;DHT22;7945;48.816;11.506;2023-02-22T11:26:41;12.80;99.90
15690;DHT22;7945;48.816;11.506;2023-02-22T11:29:15;13.10;99.90
15690;DHT22;7945;48.816;11.506;2023-02-22T11:31:45;13.10;99.90
15690;DHT22;7945;48.816;11.506;2023-02-22T11:34:28;13.10;99.90
15690;DHT22;7945;48.816;11.506;2023-02-22T11:36:56;13.20;99.90
15690;DHT22;7945;48.816;11.506;2023-02-22T11:39:40;13.30;99.90
15690;DHT22;7945;48.816;11.506;2023-02-22T11:42:19;13.40;99.90
15690;DHT22;7945;48.816;11.506;2023-02-22T11:44:48;13.50;99.90
15690;DHT22;7945;48.816;11.506;2023-02-22T11:47:32;13.50;99.90
15690;DHT22;7945;48.816;11.506;2023-02-22T11:49:59;13.60;99.90
15690;DHT22;7945;48.816;11.506;2023-02-22T11:52:32;13.60;99.90
15690;DHT22;7945;48.816;11.506;2023-02-22T11:55:11;13.60;99.90
15690;DHT22;7945;48.816;11.506;2023-02-22T11:57:54;13.50;99.90
15690;DHT22;7945;48.816;11.506;2023-02-22T12:00:32;13.50;99.90
15690;DHT22;7945;48.816;11.506;2023-02-22T12:03:18;13.50;99.90
15690;DHT22;7945;48.816;11.506;2023-02-22T12:06:08;13.60;99.90
15690;DHT22;7945;48.816;11.506;2023-02-22T12:08:46;13.70;99.90
15690;DHT22;7945;48.816;11.506;2023-02-22T12:11:21;13.80;99.90
15690;DHT22;7945;48.816;11.506;2023-02-22T12:14:01;14.00;99.90
15690;DHT22;7945;48.816;11.506;2023-02-22T12:16:41;14.20;99.90
15690;DHT22;7945;48.816;11.506;2023-02-22T12:19:18;14.40;99.80
15690;DHT22;7945;48.816;11.506;2023-02-22T12:21:52;14.40;99.70
15690;DHT22;7945;48.816;11.506;2023-02-22T12:24:22;14.50;99.80
15690;DHT22;7945;48.816;11.506;2023-02-22T12:26:55;14.50;99.90
15690;DHT22;7945;48.816;11.506;2023-02-22T12:29:28;14.50;99.90
15690;DHT22;7945;48.816;11.506;2023-02-22T12:32:02;14.50;99.90
15690;DHT22;7945;48.816;11.506;2023-02-22T12:34:35;14.40;99.90
15690;DHT22;7945;48.816;11.506;2023-02-22T12:37:11;14.40;99.90
15690;DHT22;7945;48.816;11.506;2023-02-22T12:39:48;14.50;99.90
15690;DHT22;7945;48.816;11.506;2023-02-22T12:42:21;14.40;99.90
15690;DHT22;7945;48.816;11.506;2023-02-22T12:44:53;14.40;99.90
15690;DHT22;7945;48.816;11.506;2023-02-22T12:47:29;14.30;99.90
15690;DHT22;7945;48.816;11.506;2023-02-22T12:50:01;14.30;99.90
15690;DHT22;7945;48.816;11.506;2023-02-22T12:52:37;14.30;99.90
15690;DHT22;7945;48.816;11.506;2023-02-22T12:55:10;14.40;99.90
15690;DHT22;7945;48.816;11.506;2023-02-22T12:57:45;14.40;99.90
15690;DHT22;7945;48.816;11.506;2023-02-22T13:00:16;14.40;99.90
15690;DHT22;7945;48.816;11.506;2023-02-22T13:02:55;14.40;99.90
15690;DHT22;7945;48.816;11.506;2023-02-22T13:05:24;14.40;99.90
15690;DHT22;7945;48.816;11.506;2023-02-22T13:08:00;14.50;99.90
15690;DHT22;7945;48.816;11.506;2023-02-22T13:11:00;14.50;99.90
15690;DHT22;7945;48.816;11.506;2023-02-22T13:13:37;14.50;99.90
15690;DHT22;7945;48.816;11.506;2023-02-22T13:16:14;14.40;99.90
15690;DHT22;7945;48.816;11.506;2023-02-22T13:18:49;14.40;99.90
15690;DHT22;7945;48.816;11.506;2023-02-22T13:21:22;14.30;99.90
15690;DHT22;7945;48.816;11.506;2023-02-22T13:23:57;14.30;99.90
15690;DHT22;7945;48.816;11.506;2023-02-22T13:26:33;14.30;99.90
15690;DHT22;7945;48.816;11.506;2023-02-22T13:29:04;14.30;99.90
15690;DHT22;7945;48.816;11.506;2023-02-22T13:31:54;14.30;99.90
15690;DHT22;7945;48.816;11.506;2023-02-22T13:40:49;14.20;99.90
15690;DHT22;7945;48.816;11.506;2023-02-22T13:43:42;14.20;99.90
15690;DHT22;7945;48.816;11.506;2023-02-22T13:46:34;14.30;99.90
15690;DHT22;7945;48.816;11.506;2023-02-22T13:49:37;14.30;99.90
15690;DHT22;7945;48.816;11.506;2023-02-22T13:52:07;14.30;99.90
15690;DHT22;7945;48.816;11.506;2023-02-22T13:54:39;14.40;99.90
15690;DHT22;7945;48.816;11.506;2023-02-22T13:57:18;14.40;99.90
15690;DHT22;7945;48.816;11.506;2023-02-22T13:59:45;14.40;99.90
15690;DHT22;7945;48.816;11.506;2023-02-22T14:02:31;14.40;99.90
15690;DHT22;7945;48.816;11.506;2023-02-22T14:08:37;14.40;99.90
15690;DHT22;7945;48.816;11.506;2023-02-22T14:11:05;14.40;99.90
15690;DHT22;7945;48.816;11.506;2023-02-22T14:14:11;14.40;99.90
15690;DHT22;7945;48.816;11.506;2023-02-22T14:16:40;14.30;99.90
15690;DHT22;7945;48.816;11.506;2023-02-22T14:19:14;14.40;99.90
15690;DHT22;7945;48.816;11.506;2023-02-22T14:21:57;14.30;99.90
15690;DHT22;7945;48.816;11.506;2023-02-22T14:24:27;14.20;99.90
15690;DHT22;7945;48.816;11.506;2023-02-22T14:26:58;14.20;99.90
15690;DHT22;7945;48.816;11.506;2023-02-22T14:29:26;14.10;99.90
15690;DHT22;7945;48.816;11.506;2023-02-22T14:32:01;14.10;99.90
15690;DHT22;7945;48.816;11.506;2023-02-22T14:34:47;14.10;99.90
15690;DHT22;7945;48.816;11.506;2023-02-22T14:37:19;14.20;99.90
15690;DHT22;7945;48.816;11.506;2023-02-22T14:39:51;14.30;99.90
15690;DHT22;7945;48.816;11.506;2023-02-22T14:42:23;14.30;99.90
15690;DHT22;7945;48.816;11.506;2023-02-22T14:44:55;14.30;99.90
15690;DHT22;7945;48.816;11.506;2023-02-22T14:47:27;14.30;99.90
15690;DHT22;7945;48.816;11.506;2023-02-22T14:49:59;14.40;99.90
15690;DHT22;7945;48.816;11.506;2023-02-22T14:52:31;14.40;99.90
15690;DHT22;7945;48.816;11.506;2023-02-22T14:55:06;14.40;99.90
15690;DHT22;7945;48.816;11.506;2023-02-22T14:57:45;14.50;99.90
15690;DHT22;7945;48.816;11.506;2023-02-22T15:00:20;14.50;99.90
15690;DHT22;7945;48.816;11.506;2023-02-22T15:02:55;14.60;99.90
15690;DHT22;7945;48.816;11.506;2023-02-22T15:05:24;14.60;99.90
15690;DHT22;7945;48.816;11.506;2023-02-22T15:07:57;14.60;99.90
15690;DHT22;7945;48.816;11.506;2023-02-22T15:10:29;14.60;99.90
15690;DHT22;7945;48.816;11.506;2023-02-22T15:12:59;14.60;99.90
15690;DHT22;7945;48.816;11.506;2023-02-22T15:15:37;14.50;99.90
15690;DHT22;7945;48.816;11.506;2023-02-22T15:18:14;14.50;99.90
15690;DHT22;7945;48.816;11.506;2023-02-22T15:20:43;14.50;99.90
15690;DHT22;7945;48.816;11.506;2023-02-22T15:23:14;14.50;99.90
15690;DHT22;7945;48.816;11.506;2023-02-22T15:25:46;14.40;99.90
15690;DHT22;7945;48.816;11.506;2023-02-22T15:28:14;14.40;99.90
15690;DHT22;7945;48.816;11.506;2023-02-22T15:30:42;14.40;99.90
15690;DHT22;7945;48.816;11.506;2023-02-22T15:33:11;14.30;99.90
15690;DHT22;7945;48.816;11.506;2023-02-22T15:35:38;14.30;99.90
15690;DHT22;7945;48.816;11.506;2023-02-22T15:38:12;14.20;99.90
15690;DHT22;7945;48.816;11.506;2023-02-22T15:40:42;14.20;99.90
15690;DHT22;7945;48.816;11.506;2023-02-22T15:43:17;14.20;99.90
15690;DHT22;7945;48.816;11.506;2023-02-22T15:45:44;14.20;99.90
15690;DHT22;7945;48.816;11.506;2023-02-22T15:48:11;14.10;99.90
15690;DHT22;7945;48.816;11.506;2023-02-22T15:50:58;14.10;99.90
15690;DHT22;7945;48.816;11.506;2023-02-22T15:53:35;14.10;99.90
15690;DHT22;7945;48.816;11.506;2023-02-22T15:56:09;14.00;99.90
15690;DHT22;7945;48.816;11.506;2023-02-22T15:58:37;14.00;99.90
15690;DHT22;7945;48.816;11.506;2023-02-22T16:01:06;13.90;99.90
15690;DHT22;7945;48.816;11.506;2023-02-22T16:03:35;13.90;99.90
15690;DHT22;7945;48.816;11.506;2023-02-22T16:06:10;13.80;99.90
15690;DHT22;7945;48.816;11.506;2023-02-22T16:08:41;13.80;99.90
15690;DHT22;7945;48.816;11.506;2023-02-22T16:11:13;13.70;99.90
15690;DHT22;7945;48.816;11.506;2023-02-22T16:13:51;13.60;99.90
15690;DHT22;7945;48.816;11.506;2023-02-22T16:16:24;13.60;99.90
15690;DHT22;7945;48.816;11.506;2023-02-22T16:19:28;13.60;99.90